createdAt,value
2023-03-02T00:02:04.501Z,34.10
2023-03-02T00:04:46.892Z,34.10
2023-03-02T00:07:19.993Z,36.37
2023-03-02T00:09:47.602Z,36.97
2023-03-02T00:12:15.889Z,36.40
2023-03-02T00:14:43.050Z,37.07
2023-03-02T00:17:10.697Z,36.17
2023-03-02T00:19:39.071Z,35.93
2023-03-02T00:22:06.303Z,35.17
2023-03-02T00:24:33.638Z,34.00
2023-03-02T00:27:00.790Z,35.70
2023-03-02T00:29:27.955Z,37.07
2023-03-02T00:31:55.107Z,36.13
2023-03-02T00:34:22.383Z,36.23
2023-03-02T00:36:49.648Z,37.17
2023-03-02T00:39:20.183Z,37.37
2023-03-02T00:41:48.548Z,36.80
2023-03-02T00:44:17.782Z,37.70
2023-03-02T00:46:45.472Z,38.37
2023-03-02T00:49:13.318Z,37.47
2023-03-02T00:51:40.461Z,38.77
2023-03-02T00:54:07.795Z,36.10
2023-03-02T00:56:35.164Z,37.07
2023-03-02T00:59:11.231Z,35.07
2023-03-02T01:01:38.426Z,36.87
2023-03-02T01:04:05.833Z,35.97
2023-03-02T01:06:33.419Z,34.43
2023-03-02T01:09:00.671Z,33.97
2023-03-02T01:11:27.729Z,34.20
2023-03-02T01:13:54.724Z,33.23
2023-03-02T01:16:21.938Z,33.00
2023-03-02T01:18:48.991Z,32.33
2023-03-02T01:21:16.957Z,34.10
2023-03-02T01:23:44.295Z,34.23
2023-03-02T01:26:11.619Z,32.43
2023-03-02T01:28:38.884Z,33.00
2023-03-02T01:31:06.114Z,34.57
2023-03-02T01:33:33.344Z,34.17
2023-03-02T01:36:00.702Z,33.97
2023-03-02T01:38:27.951Z,34.73
2023-03-02T01:40:55.248Z,31.80
2023-03-02T01:43:22.569Z,32.10
2023-03-02T01:46:12.845Z,31.47
2023-03-02T01:48:57.044Z,31.30
2023-03-02T01:51:27.042Z,27.80
2023-03-02T01:54:22.939Z,29.60
2023-03-02T01:57:00.393Z,29.60
2023-03-02T01:59:31.729Z,27.73
2023-03-02T02:02:05.229Z,26.50
2023-03-02T02:04:34.547Z,26.97
2023-03-02T02:07:06.293Z,25.90
2023-03-02T02:09:45.964Z,24.43
2023-03-02T02:12:19.807Z,25.63
2023-03-02T02:14:48.424Z,22.73
2023-03-02T02:17:18.216Z,22.53
2023-03-02T02:19:48.206Z,24.07
2023-03-02T02:22:29.679Z,23.93
2023-03-02T02:25:02.552Z,23.93
2023-03-02T02:27:33.843Z,24.47
2023-03-02T02:30:06.439Z,24.97
2023-03-02T02:32:39.254Z,24.17
2023-03-02T02:35:20.147Z,23.07
2023-03-02T02:37:56.082Z,22.87
2023-03-02T02:40:59.316Z,23.97
2023-03-02T02:43:30.805Z,22.43
2023-03-02T02:46:00.071Z,21.80
2023-03-02T02:48:31.224Z,23.83
2023-03-02T02:51:03.376Z,21.60
2023-03-02T02:53:59.086Z,21.80
2023-03-02T02:56:37.368Z,22.57
2023-03-02T02:59:32.477Z,22.20
2023-03-02T03:02:00.479Z,21.27
2023-03-02T03:04:32.033Z,22.03
2023-03-02T03:07:05.264Z,21.20
2023-03-02T03:09:33.135Z,22.43
2023-03-02T03:12:17.293Z,21.43
2023-03-02T03:14:45.347Z,21.10
2023-03-02T03:17:12.872Z,20.57
2023-03-02T03:19:46.045Z,22.67
2023-03-02T03:22:15.754Z,20.83
2023-03-02T03:24:44.941Z,22.10
2023-03-02T03:27:16.176Z,20.73
2023-03-02T03:29:48.456Z,22.37
2023-03-02T03:32:16.277Z,20.50
2023-03-02T03:34:43.674Z,21.90
2023-03-02T03:37:15.328Z,21.70
2023-03-02T03:39:42.949Z,22.13
2023-03-02T03:42:11.377Z,20.70
2023-03-02T03:44:38.679Z,20.00
2023-03-02T03:47:05.916Z,21.83
2023-03-02T03:49:33.483Z,19.47
2023-03-02T03:52:00.616Z,18.93
2023-03-02T03:54:27.727Z,20.80
2023-03-02T03:56:54.767Z,19.97
2023-03-02T03:59:25.013Z,19.93
2023-03-02T04:01:57.304Z,19.03
2023-03-02T04:04:29.800Z,19.90
2023-03-02T04:06:57.596Z,20.53
2023-03-02T04:09:25.969Z,20.00
2023-03-02T04:11:55.875Z,20.83
2023-03-02T04:14:24.342Z,21.10
2023-03-02T04:16:52.383Z,20.37
2023-03-02T04:19:19.941Z,19.40
2023-03-02T04:21:50.871Z,20.10
2023-03-02T04:24:20.120Z,20.73
2023-03-02T04:26:49.223Z,21.27
2023-03-02T04:29:17.652Z,21.40
2023-03-02T04:31:44.909Z,21.17
2023-03-02T04:34:12.306Z,21.70
2023-03-02T04:36:40.882Z,20.63
2023-03-02T04:39:10.433Z,21.83
2023-03-02T04:41:38.462Z,20.73
2023-03-02T04:44:05.682Z,22.53
2023-03-02T04:46:34.893Z,20.90
2023-03-02T04:49:02.503Z,20.07
2023-03-02T04:51:34.739Z,21.43
2023-03-02T04:54:16.195Z,21.97
2023-03-02T04:56:43.348Z,20.07
2023-03-02T04:59:10.492Z,20.97
2023-03-02T05:01:37.659Z,20.67
2023-03-02T05:04:05.178Z,21.57
2023-03-02T05:06:32.575Z,21.57
2023-03-02T05:09:00.268Z,21.03
2023-03-02T05:11:27.751Z,21.13
2023-03-02T05:14:01.713Z,20.67
2023-03-02T05:16:32.677Z,20.87
2023-03-02T05:19:02.456Z,20.30
2023-03-02T05:21:30.604Z,19.50
2023-03-02T05:23:58.584Z,21.50
2023-03-02T05:26:25.880Z,21.73
2023-03-02T05:28:54.106Z,22.47
2023-03-02T05:31:43.536Z,23.27
2023-03-02T05:34:16.267Z,24.07
2023-03-02T05:36:45.460Z,22.67
2023-03-02T05:39:13.320Z,22.37
2023-03-02T05:41:41.665Z,22.70
2023-03-02T05:44:10.378Z,23.07
2023-03-02T05:46:37.995Z,23.43
2023-03-02T05:49:05.252Z,22.63
2023-03-02T05:51:32.480Z,23.00
2023-03-02T05:53:59.710Z,21.20
2023-03-02T05:56:27.069Z,22.57
2023-03-02T05:58:54.187Z,22.87
2023-03-02T06:01:21.278Z,22.60
2023-03-02T06:03:48.436Z,22.80
2023-03-02T06:06:15.527Z,22.00
2023-03-02T06:08:43.642Z,23.00
2023-03-02T06:11:12.516Z,23.00
2023-03-02T06:13:40.320Z,24.77
2023-03-02T06:16:08.935Z,23.53
2023-03-02T06:18:39.728Z,22.17
2023-03-02T06:21:08.227Z,23.57
2023-03-02T06:23:35.301Z,25.27
2023-03-02T06:26:12.056Z,23.63
2023-03-02T06:28:51.607Z,25.30
2023-03-02T06:31:19.582Z,26.83
2023-03-02T06:33:46.804Z,25.03
2023-03-02T06:36:15.227Z,24.63
2023-03-02T06:38:42.317Z,26.70
2023-03-02T06:41:09.457Z,27.00
2023-03-02T06:43:36.676Z,27.37
2023-03-02T06:46:04.271Z,27.40
2023-03-02T06:48:31.544Z,29.23
2023-03-02T06:50:58.750Z,28.97
2023-03-02T06:53:26.421Z,31.60
2023-03-02T06:55:53.685Z,33.77
2023-03-02T06:58:21.028Z,34.73
2023-03-02T07:00:48.212Z,34.63
2023-03-02T07:03:15.393Z,34.53
2023-03-02T07:05:44.570Z,36.07
2023-03-02T07:08:13.106Z,36.33
2023-03-02T07:10:40.258Z,34.83
2023-03-02T07:13:09.166Z,35.63
2023-03-02T07:15:39.733Z,41.37
2023-03-02T07:18:06.947Z,42.70
2023-03-02T07:20:34.355Z,42.93
2023-03-02T07:23:01.497Z,43.93
2023-03-02T07:25:28.516Z,42.43
2023-03-02T07:27:55.706Z,38.90
2023-03-02T07:30:22.898Z,40.30
2023-03-02T07:32:50.377Z,39.93
2023-03-02T07:35:18.127Z,39.57
2023-03-02T07:37:45.327Z,39.57
2023-03-02T07:40:13.576Z,39.23
2023-03-02T07:42:40.960Z,39.07
2023-03-02T07:45:08.774Z,39.17
2023-03-02T07:47:35.844Z,38.00
2023-03-02T07:50:03.362Z,38.50
2023-03-02T07:52:31.202Z,36.97
2023-03-02T07:54:58.272Z,37.67
2023-03-02T07:57:25.403Z,35.47
2023-03-02T07:59:52.540Z,37.07
2023-03-02T08:02:20.575Z,33.53
2023-03-02T08:04:47.775Z,35.90
2023-03-02T08:07:14.879Z,36.07
2023-03-02T08:09:41.927Z,34.17
2023-03-02T08:12:09.471Z,35.97
2023-03-02T08:14:38.059Z,35.70
2023-03-02T08:17:06.745Z,34.83
2023-03-02T08:19:34.086Z,33.27
2023-03-02T08:22:02.426Z,33.03
2023-03-02T08:24:29.614Z,32.10
2023-03-02T08:26:59.481Z,31.67
2023-03-02T08:29:26.642Z,32.50
2023-03-02T08:31:53.834Z,31.13
2023-03-02T08:34:21.032Z,31.87
2023-03-02T08:36:48.023Z,31.13
2023-03-02T08:39:15.584Z,32.10
2023-03-02T08:41:42.632Z,32.33
2023-03-02T08:44:09.897Z,29.23
2023-03-02T08:46:36.936Z,28.87
2023-03-02T08:49:04.040Z,27.87
2023-03-02T08:51:31.514Z,27.90
2023-03-02T08:53:58.853Z,28.30
2023-03-02T08:56:35.147Z,29.80
2023-03-02T08:59:06.712Z,29.07
2023-03-02T09:01:36.833Z,29.60
2023-03-02T09:04:06.986Z,28.37
2023-03-02T09:06:38.307Z,26.57
2023-03-02T09:09:06.277Z,27.67
2023-03-02T09:11:34.555Z,27.90
2023-03-02T09:14:02.202Z,26.47
2023-03-02T09:16:29.386Z,24.37
2023-03-02T09:18:56.455Z,25.50
2023-03-02T09:21:23.805Z,23.50
2023-03-02T09:23:55.806Z,22.23
2023-03-02T09:26:22.984Z,21.47
2023-03-02T09:28:50.196Z,20.80
2023-03-02T09:31:17.352Z,18.83
2023-03-02T09:33:44.918Z,19.70
2023-03-02T09:36:26.201Z,19.27
2023-03-02T09:38:53.882Z,17.87
2023-03-02T09:41:20.785Z,17.77
2023-03-02T09:44:09.250Z,18.63
2023-03-02T09:46:54.233Z,17.93
2023-03-02T09:50:19.545Z,15.67
2023-03-02T09:52:53.115Z,15.13
2023-03-02T09:55:27.751Z,16.20
2023-03-02T09:57:56.179Z,14.97
2023-03-02T10:00:41.193Z,14.47
2023-03-02T10:03:23.524Z,13.63
2023-03-02T10:05:56.236Z,13.33
2023-03-02T10:08:32.641Z,13.77
2023-03-02T10:11:02.658Z,13.37
2023-03-02T10:13:47.702Z,11.37
2023-03-02T10:16:26.879Z,10.43
2023-03-02T10:19:25.182Z,9.60
2023-03-02T10:22:09.321Z,10.17
2023-03-02T10:25:15.418Z,9.70
2023-03-02T10:27:47.712Z,8.20
2023-03-02T10:30:27.685Z,7.80
2023-03-02T10:33:00.937Z,7.37
2023-03-02T10:35:30.892Z,7.20
2023-03-02T10:38:12.404Z,8.20
2023-03-02T10:41:06.612Z,7.93
2023-03-02T10:43:57.441Z,7.60
2023-03-02T10:46:24.823Z,7.17
2023-03-02T10:49:01.354Z,7.73
2023-03-02T10:51:37.560Z,9.00
2023-03-02T10:54:13.565Z,9.53
2023-03-02T10:56:52.056Z,10.27
2023-03-02T10:59:45.348Z,9.90
2023-03-02T11:02:29.390Z,10.27
2023-03-02T11:05:10.801Z,9.37
2023-03-02T11:07:37.833Z,10.67
2023-03-02T11:10:19.261Z,9.60
2023-03-02T11:12:49.518Z,9.53
2023-03-02T11:15:35.409Z,8.90
2023-03-02T11:18:42.835Z,8.30
2023-03-02T11:21:43.586Z,9.00
2023-03-02T11:24:44.966Z,7.97
2023-03-02T11:27:27.973Z,7.47
2023-03-02T11:30:02.896Z,8.20
2023-03-02T11:32:47.877Z,7.60
2023-03-02T11:36:05.943Z,7.60
2023-03-02T11:38:53.516Z,7.63
2023-03-02T11:41:33.518Z,7.47
2023-03-02T11:44:17.599Z,8.27
2023-03-02T11:46:59.329Z,7.40
2023-03-02T11:49:42.436Z,7.53
2023-03-02T11:52:38.999Z,8.07
2023-03-02T11:55:23.854Z,8.07
2023-03-02T12:00:39.131Z,8.70
2023-03-02T12:03:29.118Z,8.10
2023-03-02T12:06:22.447Z,9.20
2023-03-02T12:09:08.607Z,8.60
2023-03-02T12:11:45.248Z,10.27
2023-03-02T12:14:45.096Z,8.93
2023-03-02T12:17:33.344Z,9.10
2023-03-02T12:20:21.488Z,9.37
2023-03-02T12:22:48.517Z,9.80
2023-03-02T12:25:21.539Z,9.93
2023-03-02T12:27:52.156Z,8.47
2023-03-02T12:30:23.761Z,8.90
2023-03-02T12:33:22.505Z,8.47
2023-03-02T12:35:52.036Z,9.77
2023-03-02T12:38:32.576Z,8.93
2023-03-02T12:41:40.244Z,8.70
2023-03-02T12:44:31.662Z,9.30
2023-03-02T12:46:59.430Z,8.37
2023-03-02T12:49:53.928Z,9.27
2023-03-02T12:52:31.431Z,8.87
2023-03-02T12:55:01.249Z,8.47
2023-03-02T12:57:28.626Z,8.83
2023-03-02T12:59:59.289Z,8.17
2023-03-02T13:02:36.302Z,9.50
2023-03-02T13:05:09.338Z,10.63
2023-03-02T13:07:55.362Z,9.13
2023-03-02T13:10:40.900Z,8.87
2023-03-02T13:13:20.663Z,9.67
2023-03-02T13:15:50.863Z,10.77
2023-03-02T13:18:18.603Z,9.77
2023-03-02T13:20:47.153Z,9.57
2023-03-02T13:23:15.633Z,9.10
2023-03-02T13:25:56.209Z,9.50
2023-03-02T13:28:30.482Z,8.77
2023-03-02T13:31:25.154Z,9.30
2023-03-02T13:33:55.705Z,10.00
2023-03-02T13:36:26.489Z,9.40
2023-03-02T13:38:59.480Z,10.67
2023-03-02T13:41:33.170Z,9.73
2023-03-02T13:44:20.585Z,9.00
2023-03-02T13:46:48.419Z,10.87
2023-03-02T13:49:35.360Z,9.73
2023-03-02T13:52:16.474Z,9.30
2023-03-02T13:54:47.282Z,10.50
2023-03-02T13:57:21.755Z,9.70
2023-03-02T13:59:49.234Z,8.93
2023-03-02T14:02:34.611Z,10.03
2023-03-02T14:05:01.791Z,9.50
2023-03-02T14:07:28.971Z,9.23
2023-03-02T14:09:57.546Z,9.17
2023-03-02T14:12:33.228Z,8.77
2023-03-02T14:15:03.749Z,9.13
2023-03-02T14:17:30.889Z,9.47
2023-03-02T14:19:58.052Z,9.20
2023-03-02T14:22:27.458Z,9.77
2023-03-02T14:24:54.625Z,9.83
2023-03-02T14:27:31.175Z,9.90
2023-03-02T14:29:59.192Z,9.40
2023-03-02T14:32:26.418Z,9.20
2023-03-02T14:34:53.577Z,8.93
2023-03-02T14:37:26.428Z,9.40
2023-03-02T14:39:56.858Z,10.00
2023-03-02T14:42:24.244Z,9.23
2023-03-02T14:44:51.903Z,9.93
2023-03-02T14:47:19.851Z,11.40
2023-03-02T14:49:47.282Z,10.63
2023-03-02T14:52:23.521Z,11.43
2023-03-02T14:54:56.382Z,10.97
2023-03-02T14:57:30.083Z,9.47
2023-03-02T15:00:00.008Z,11.03
2023-03-02T15:02:27.444Z,9.83
2023-03-02T15:04:57.627Z,9.63
2023-03-02T15:07:27.671Z,10.10
2023-03-02T15:09:57.596Z,10.60
2023-03-02T15:12:25.179Z,10.03
2023-03-02T15:14:52.297Z,10.60
2023-03-02T15:17:19.686Z,10.73
2023-03-02T15:19:47.755Z,10.00
2023-03-02T15:22:14.913Z,10.47
2023-03-02T15:24:41.971Z,11.30
2023-03-02T15:27:09.248Z,11.67
2023-03-02T15:29:36.350Z,11.03
2023-03-02T15:32:03.612Z,10.70
2023-03-02T15:34:30.762Z,11.27
2023-03-02T15:36:57.807Z,12.00
2023-03-02T15:39:24.912Z,11.63
2023-03-02T15:41:53.839Z,12.60
2023-03-02T15:44:24.420Z,11.83
2023-03-02T15:46:55.254Z,11.77
2023-03-02T15:49:24.898Z,11.37
2023-03-02T15:51:52.992Z,13.40
2023-03-02T15:54:21.315Z,13.10
2023-03-02T15:56:52.172Z,12.27
2023-03-02T15:59:21.607Z,12.17
2023-03-02T16:01:48.961Z,12.63
2023-03-02T16:04:16.135Z,11.97
2023-03-02T16:06:43.624Z,12.43
2023-03-02T16:09:11.028Z,14.63
2023-03-02T16:11:38.090Z,12.87
2023-03-02T16:14:05.211Z,13.63
2023-03-02T16:16:32.547Z,14.47
2023-03-02T16:19:00.039Z,15.07
2023-03-02T16:21:28.939Z,14.33
2023-03-02T16:24:03.543Z,15.60
2023-03-02T16:26:33.984Z,13.73
2023-03-02T16:29:01.723Z,15.10
2023-03-02T16:31:32.353Z,14.57
2023-03-02T16:34:03.907Z,14.23
2023-03-02T16:36:30.980Z,13.60
2023-03-02T16:38:58.146Z,14.07
2023-03-02T16:41:25.985Z,14.50
2023-03-02T16:43:56.590Z,14.87
2023-03-02T16:46:27.581Z,15.40
2023-03-02T16:48:55.165Z,14.20
2023-03-02T16:51:22.585Z,16.10
2023-03-02T16:53:50.506Z,14.80
2023-03-02T16:56:17.791Z,16.47
2023-03-02T16:58:45.038Z,16.23
2023-03-02T17:01:19.658Z,16.67
2023-03-02T17:03:48.132Z,17.63
2023-03-02T17:06:18.547Z,17.50
2023-03-02T17:08:45.762Z,16.50
2023-03-02T17:11:12.923Z,17.23
2023-03-02T17:13:40.082Z,15.93
2023-03-02T17:16:07.554Z,16.83
2023-03-02T17:18:35.340Z,17.20
2023-03-02T17:21:04.507Z,16.93
2023-03-02T17:23:31.932Z,16.63
2023-03-02T17:25:59.240Z,18.10
2023-03-02T17:28:26.580Z,16.70
2023-03-02T17:30:53.732Z,18.30
2023-03-02T17:33:20.943Z,17.27
2023-03-02T17:35:48.181Z,17.77
2023-03-02T17:38:16.255Z,17.70
2023-03-02T17:40:43.755Z,18.67
2023-03-02T17:43:12.514Z,18.83
2023-03-02T17:45:39.944Z,20.70
2023-03-02T17:48:07.571Z,19.20
2023-03-02T17:50:34.901Z,18.47
2023-03-02T17:53:03.074Z,19.73
2023-03-02T17:55:30.666Z,20.13
2023-03-02T17:57:58.081Z,21.33
2023-03-02T18:00:25.727Z,29.30
2023-03-02T18:02:53.797Z,27.97
2023-03-02T18:05:22.290Z,25.77
2023-03-02T18:07:51.720Z,23.67
2023-03-02T18:10:18.931Z,23.93
2023-03-02T18:12:46.116Z,24.03
2023-03-02T18:15:15.291Z,23.43
2023-03-02T18:17:42.505Z,23.43
2023-03-02T18:20:10.694Z,23.03
2023-03-02T18:22:37.944Z,22.77
2023-03-02T18:25:05.870Z,22.50
2023-03-02T18:27:33.251Z,23.87
2023-03-02T18:30:00.426Z,22.63
2023-03-02T18:32:27.937Z,23.20
2023-03-02T18:34:55.209Z,24.13
2023-03-02T18:37:22.757Z,21.13
2023-03-02T18:39:50.238Z,24.83
2023-03-02T18:42:17.586Z,23.43
2023-03-02T18:44:44.994Z,24.00
2023-03-02T18:47:17.193Z,24.80
2023-03-02T18:49:45.872Z,24.90
2023-03-02T18:52:16.737Z,25.93
2023-03-02T18:54:46.406Z,25.43
2023-03-02T18:57:14.498Z,25.13
2023-03-02T18:59:41.735Z,25.97
2023-03-02T19:02:13.525Z,27.03
2023-03-02T19:04:40.837Z,26.83
2023-03-02T19:07:09.105Z,25.80
2023-03-02T19:09:36.540Z,25.90
2023-03-02T19:12:04.631Z,25.20
2023-03-02T19:14:31.809Z,25.13
2023-03-02T19:16:59.103Z,27.03
2023-03-02T19:19:26.515Z,26.37
2023-03-02T19:21:53.754Z,26.63
2023-03-02T19:24:21.096Z,27.37
2023-03-02T19:26:48.180Z,27.60
2023-03-02T19:29:15.371Z,28.27
2023-03-02T19:31:42.559Z,27.93
2023-03-02T19:34:09.868Z,29.00
2023-03-02T19:36:37.322Z,28.97
2023-03-02T19:39:04.592Z,29.00
2023-03-02T19:41:31.788Z,29.30
2023-03-02T19:43:58.985Z,29.77
2023-03-02T19:46:28.640Z,29.60
2023-03-02T19:48:55.793Z,30.20
2023-03-02T19:51:23.051Z,28.83
2023-03-02T19:53:50.556Z,30.17
2023-03-02T19:56:20.390Z,27.37
2023-03-02T19:58:49.596Z,30.30
2023-03-02T20:01:25.829Z,28.70
2023-03-02T20:03:54.456Z,29.07
2023-03-02T20:06:26.164Z,30.27
2023-03-02T20:08:53.465Z,29.07
2023-03-02T20:11:20.655Z,28.73
2023-03-02T20:13:48.339Z,30.27
2023-03-02T20:16:15.887Z,31.47
2023-03-02T20:18:45.584Z,31.83
2023-03-02T20:21:12.782Z,31.33
2023-03-02T20:23:39.866Z,31.60
2023-03-02T20:26:07.487Z,34.33
2023-03-02T20:28:35.360Z,32.30
2023-03-02T20:31:09.842Z,41.07
2023-03-02T20:33:46.423Z,35.43
2023-03-02T20:36:21.751Z,36.27
2023-03-02T20:39:00.617Z,36.10
2023-03-02T20:41:28.794Z,36.87
2023-03-02T20:43:57.164Z,35.93
2023-03-02T20:46:51.576Z,32.40
2023-03-02T20:49:19.696Z,33.03
2023-03-02T20:51:53.195Z,35.13
2023-03-02T20:54:25.584Z,33.97
2023-03-02T20:56:53.262Z,34.33
2023-03-02T20:59:22.228Z,32.83
2023-03-02T21:01:51.227Z,34.10
2023-03-02T21:04:18.459Z,33.77
2023-03-02T21:06:47.070Z,34.40
2023-03-02T21:09:15.351Z,32.63
2023-03-02T21:11:43.006Z,32.53
2023-03-02T21:14:11.097Z,34.17
2023-03-02T21:16:41.848Z,34.27
2023-03-02T21:19:16.038Z,34.33
2023-03-02T21:21:43.257Z,31.83
2023-03-02T21:24:16.978Z,35.20
2023-03-02T21:26:47.282Z,34.37
2023-03-02T21:29:16.802Z,33.50
2023-03-02T21:31:44.448Z,32.60
2023-03-02T21:34:12.799Z,32.50
2023-03-02T21:36:41.231Z,33.40
2023-03-02T21:39:10.112Z,31.90
2023-03-02T21:41:38.518Z,33.90
2023-03-02T21:44:07.018Z,33.97
2023-03-02T21:46:37.021Z,33.00
2023-03-02T21:49:04.791Z,34.13
2023-03-02T21:51:32.496Z,32.43
2023-03-02T21:53:59.689Z,33.60
2023-03-02T21:56:27.459Z,35.10
2023-03-02T21:58:57.559Z,36.10
2023-03-02T22:01:26.656Z,36.63
2023-03-02T22:03:54.237Z,37.80
2023-03-02T22:06:25.331Z,37.17
2023-03-02T22:08:53.297Z,37.70
2023-03-02T22:11:26.019Z,37.33
2023-03-02T22:13:58.031Z,38.97
2023-03-02T22:16:40.322Z,38.17
2023-03-02T22:19:32.232Z,38.23
2023-03-02T22:22:01.315Z,37.93
2023-03-02T22:24:31.938Z,37.37
2023-03-02T22:27:02.501Z,35.83
2023-03-02T22:29:43.985Z,38.27
2023-03-02T22:32:27.610Z,35.30
2023-03-02T22:35:00.723Z,35.77
2023-03-02T22:37:32.983Z,34.13
2023-03-02T22:40:17.048Z,34.57
2023-03-02T22:42:44.118Z,34.23
2023-03-02T22:45:23.407Z,35.40
2023-03-02T22:47:53.045Z,34.50
2023-03-02T22:50:25.938Z,36.13
2023-03-02T22:52:55.402Z,35.20
2023-03-02T22:55:39.027Z,34.30
2023-03-02T22:59:00.864Z,33.10
2023-03-02T23:01:39.312Z,33.93
2023-03-02T23:04:30.767Z,33.43
2023-03-02T23:07:06.722Z,34.73
2023-03-02T23:09:35.850Z,34.60
2023-03-02T23:12:22.627Z,35.30
2023-03-02T23:14:57.675Z,35.57
2023-03-02T23:17:37.590Z,33.57
2023-03-02T23:20:10.045Z,34.07
2023-03-02T23:22:39.100Z,34.47
2023-03-02T23:25:09.751Z,34.97
2023-03-02T23:27:37.243Z,34.50
2023-03-02T23:30:06.116Z,36.00
2023-03-02T23:32:33.285Z,34.50
2023-03-02T23:35:00.371Z,34.77
2023-03-02T23:37:27.748Z,34.67
2023-03-02T23:39:54.783Z,36.07
2023-03-02T23:42:22.252Z,35.40
2023-03-02T23:44:49.314Z,37.73
2023-03-02T23:47:16.326Z,35.20
2023-03-02T23:49:43.393Z,35.23
2023-03-02T23:52:10.480Z,36.63
2023-03-02T23:54:37.568Z,36.97
2023-03-02T23:57:05.054Z,37.57
2023-03-02T23:59:32.272Z,37.03
